Time;durP1;ratioP1;P1;durP2;ratioP2;P2;SDS_P1;SDS_P2;PMS_P1;PMS_P2;Temp;Humidity;BMP_temperature;BMP_pressure;BME280_temperature;BME280_humidity;BME280_pressure;Samples;Min_cycle;Max_cycle;Signal;HPM_P1;HPM_P2
2021/06/05 00:00:32;;;;;;;34.38;23.65;;;18.20;99.90;;;;;;4998403;28;20114;-73
2021/06/05 00:02:59;;;;;;;33.53;22.88;;;18.10;99.90;;;;;;5005886;28;20095;-72
2021/06/05 00:05:26;;;;;;;29.17;21.80;;;18.10;99.90;;;;;;5003198;28;20541;-71
2021/06/05 00:07:53;;;;;;;37.95;23.98;;;18.00;99.90;;;;;;4999153;28;20018;-73
2021/06/05 00:10:30;;;;;;;31.92;23.75;;;17.80;99.90;;;;;;5005606;28;20034;-73
2021/06/05 00:12:56;;;;;;;32.33;24.17;;;17.80;99.90;;;;;;4996179;28;20079;-72
2021/06/05 00:15:27;;;;;;;33.95;23.05;;;17.70;99.90;;;;;;5001253;28;20655;-72
2021/06/05 00:17:53;;;;;;;39.50;26.08;;;17.70;99.90;;;;;;5007438;28;20042;-71
2021/06/05 00:20:22;;;;;;;45.72;28.67;;;17.40;99.90;;;;;;5002120;28;20608;-73
2021/06/05 00:22:48;;;;;;;42.22;28.67;;;17.30;99.90;;;;;;5002370;28;20030;-73
2021/06/05 00:25:15;;;;;;;43.75;29.70;;;17.30;99.90;;;;;;5007591;28;20083;-74
2021/06/05 00:27:41;;;;;;;47.15;32.17;;;17.30;99.90;;;;;;5006579;28;20013;-72
2021/06/05 00:30:14;;;;;;;42.53;31.00;;;17.20;99.90;;;;;;5019299;28;20136;-72
2021/06/05 00:32:40;;;;;;;51.10;35.63;;;17.10;99.90;;;;;;5011147;28;20339;-73
2021/06/05 00:35:06;;;;;;;60.28;39.30;;;17.00;99.90;;;;;;5018968;28;20037;-75
2021/06/05 00:37:32;;;;;;;64.22;40.38;;;16.90;99.90;;;;;;5029208;28;20502;-71
2021/06/05 00:39:58;;;;;;;57.90;40.88;;;16.80;99.90;;;;;;5018848;28;20034;-73
2021/06/05 00:42:23;;;;;;;62.63;42.53;;;16.80;99.90;;;;;;5002169;28;20029;-74
2021/06/05 00:44:49;;;;;;;57.17;41.88;;;16.80;99.90;;;;;;4998608;28;20148;-71
2021/06/05 00:47:14;;;;;;;62.38;43.70;;;16.80;99.90;;;;;;5009146;28;20057;-73
2021/06/05 00:49:40;;;;;;;60.75;43.45;;;16.80;99.90;;;;;;4997035;28;20034;-74
2021/06/05 00:52:06;;;;;;;66.47;44.80;;;16.90;99.90;;;;;;5002415;28;20519;-71
2021/06/05 00:54:33;;;;;;;61.22;45.05;;;16.80;99.90;;;;;;5002005;28;20032;-72
2021/06/05 00:57:03;;;;;;;71.88;47.08;;;16.70;99.90;;;;;;5001900;28;20029;-73
2021/06/05 00:59:29;;;;;;;77.30;49.45;;;16.70;99.90;;;;;;5002295;28;20058;-74
2021/06/05 01:01:55;;;;;;;69.47;49.47;;;16.70;99.90;;;;;;5001508;28;20483;-73
2021/06/05 01:04:21;;;;;;;76.75;49.63;;;16.70;99.90;;;;;;5002293;28;20020;-72
2021/06/05 01:06:54;;;;;;;78.25;50.65;;;16.60;99.90;;;;;;4999533;28;20050;-73
2021/06/05 01:09:34;;;;;;;71.28;48.95;;;16.60;99.90;;;;;;4999273;28;20395;-74
2021/06/05 01:12:06;;;;;;;71.18;48.85;;;16.60;99.90;;;;;;4998402;28;20022;-74
2021/06/05 01:14:39;;;;;;;80.20;50.85;;;16.60;99.90;;;;;;4999628;28;20127;-73
2021/06/05 01:17:21;;;;;;;74.07;48.58;;;16.60;99.90;;;;;;5000492;28;20030;-72
2021/06/05 01:19:50;;;;;;;75.35;50.17;;;16.60;99.90;;;;;;5001434;28;20488;-74
2021/06/05 01:22:27;;;;;;;74.72;51.60;;;16.60;99.90;;;;;;4996339;28;20060;-72
2021/06/05 01:25:15;;;;;;;75.63;49.58;;;16.60;99.90;;;;;;4992526;28;20488;-74
2021/06/05 01:27:47;;;;;;;77.70;51.67;;;16.60;99.90;;;;;;4994122;28;20018;-72
2021/06/05 01:30:22;;;;;;;74.22;50.05;;;16.60;99.90;;;;;;5001802;28;20033;-73
2021/06/05 01:32:50;;;;;;;79.05;52.38;;;16.60;99.90;;;;;;5008336;28;20033;-73
2021/06/05 01:35:16;;;;;;;80.95;50.50;;;16.50;99.90;;;;;;4999311;28;20046;-73
2021/06/05 01:37:42;;;;;;;79.15;52.03;;;16.60;99.90;;;;;;4990525;28;20046;-71
2021/06/05 01:40:11;;;;;;;83.80;54.00;;;16.60;99.90;;;;;;4995816;28;20113;-74
2021/06/05 01:42:40;;;;;;;84.80;55.40;;;16.50;99.90;;;;;;5001247;28;20086;-74
2021/06/05 01:45:11;;;;;;;89.40;58.38;;;16.50;99.90;;;;;;5003114;28;20114;-72
2021/06/05 01:47:38;;;;;;;92.23;57.00;;;16.40;99.90;;;;;;5004287;28;20484;-74
2021/06/05 01:50:07;;;;;;;85.40;56.65;;;16.40;99.90;;;;;;5003770;28;20034;-74
2021/06/05 01:52:35;;;;;;;91.82;56.45;;;16.40;99.90;;;;;;5007638;28;20014;-74
2021/06/05 01:55:06;;;;;;;88.55;56.75;;;16.40;99.90;;;;;;5013659;28;20022;-73
2021/06/05 01:57:34;;;;;;;96.72;58.25;;;16.40;99.90;;;;;;5006226;28;20026;-72
2021/06/05 02:00:00;;;;;;;96.00;58.75;;;16.40;99.90;;;;;;5012819;28;20018;-72
2021/06/05 02:02:27;;;;;;;95.63;58.05;;;16.40;99.90;;;;;;5012673;28;20460;-73
2021/06/05 02:04:53;;;;;;;90.20;57.33;;;16.40;99.90;;;;;;5008109;28;20019;-74
2021/06/05 02:07:19;;;;;;;88.40;55.97;;;16.40;99.90;;;;;;5015687;28;20021;-72
2021/06/05 02:09:45;;;;;;;94.47;58.65;;;16.40;99.90;;;;;;5006255;28;20052;-72
2021/06/05 02:12:31;;;;;;;88.65;57.53;;;16.40;99.90;;;;;;4996311;28;20061;-71
2021/06/05 02:15:07;;;;;;;93.53;59.50;;;16.40;99.90;;;;;;4996208;28;20031;-73
2021/06/05 02:17:36;;;;;;;92.80;59.00;;;16.40;99.90;;;;;;5003520;28;20420;-72
2021/06/05 02:20:12;;;;;;;89.38;57.58;;;16.50;99.90;;;;;;4997355;28;20499;-73
2021/06/05 02:22:41;;;;;;;89.13;57.30;;;16.50;99.90;;;;;;4996551;28;20528;-72
2021/06/05 02:25:08;;;;;;;89.50;56.90;;;16.50;99.90;;;;;;4995750;28;20412;-72
2021/06/05 02:27:34;;;;;;;90.05;57.45;;;16.50;99.90;;;;;;5004092;28;20080;-71
2021/06/05 02:30:01;;;;;;;84.03;54.47;;;16.50;99.90;;;;;;5000060;28;20458;-74
2021/06/05 02:32:29;;;;;;;92.40;57.63;;;16.40;99.90;;;;;;4995378;28;20369;-72
2021/06/05 02:34:57;;;;;;;91.88;58.20;;;16.40;99.90;;;;;;5006222;28;20432;-74
2021/06/05 02:37:26;;;;;;;76.68;53.30;;;16.50;99.90;;;;;;4998387;28;20026;-73
2021/06/05 02:40:00;;;;;;;90.88;56.35;;;16.50;99.90;;;;;;5005279;28;20391;-73
2021/06/05 02:42:27;;;;;;;89.05;55.50;;;16.50;99.90;;;;;;5003788;28;20033;-73
2021/06/05 02:44:56;;;;;;;85.60;53.80;;;16.60;99.90;;;;;;5002299;28;20018;-74
2021/06/05 02:47:24;;;;;;;85.25;56.42;;;16.60;99.90;;;;;;4991494;28;20523;-72
2021/06/05 02:49:50;;;;;;;100.18;56.45;;;16.50;99.90;;;;;;5003357;28;20033;-72
2021/06/05 02:52:30;;;;;;;93.88;58.63;;;16.40;99.90;;;;;;5003182;28;20033;-72
2021/06/05 02:55:09;;;;;;;87.03;55.53;;;16.30;99.90;;;;;;5003046;28;20323;-72
2021/06/05 02:57:35;;;;;;;82.82;55.40;;;16.30;99.90;;;;;;5000741;28;20495;-74
2021/06/05 03:00:04;;;;;;;94.97;60.10;;;16.20;99.90;;;;;;4998975;28;20105;-74
2021/06/05 03:02:29;;;;;;;92.28;57.03;;;16.20;99.90;;;;;;4997497;28;20022;-73
2021/06/05 03:04:55;;;;;;;91.22;59.17;;;16.20;99.90;;;;;;4999012;28;20080;-71
2021/06/05 03:07:21;;;;;;;93.18;59.13;;;16.20;99.90;;;;;;4994106;28;20101;-74
2021/06/05 03:09:46;;;;;;;89.28;57.33;;;16.20;99.90;;;;;;4995233;28;20029;-73
2021/06/05 03:12:13;;;;;;;97.78;58.97;;;16.20;99.90;;;;;;4998105;28;20034;-72
2021/06/05 03:14:40;;;;;;;90.15;58.10;;;16.20;99.90;;;;;;5004530;28;20065;-71
2021/06/05 03:17:10;;;;;;;96.10;59.20;;;16.20;99.90;;;;;;4995991;28;20030;-72
2021/06/05 03:19:37;;;;;;;94.45;61.15;;;16.20;99.90;;;;;;4997518;28;20323;-71
2021/06/05 03:22:04;;;;;;;107.90;63.60;;;16.10;99.90;;;;;;5002082;28;20543;-71
2021/06/05 03:24:30;;;;;;;105.47;64.85;;;16.10;99.90;;;;;;4998115;28;20018;-73
2021/06/05 03:26:56;;;;;;;104.43;63.65;;;16.20;99.90;;;;;;4995145;28;20025;-73
2021/06/05 03:29:23;;;;;;;106.65;65.55;;;16.10;99.90;;;;;;5015041;28;20022;-72
2021/06/05 03:31:49;;;;;;;106.10;66.35;;;16.10;99.90;;;;;;5001199;28;20026;-73
2021/06/05 03:34:15;;;;;;;103.72;65.80;;;16.00;99.90;;;;;;4998606;28;20029;-72
2021/06/05 03:36:40;;;;;;;105.57;66.25;;;16.00;99.90;;;;;;4995425;28;20022;-73
2021/06/05 03:39:07;;;;;;;108.95;66.55;;;16.00;99.90;;;;;;4994627;28;20046;-73
2021/06/05 03:41:34;;;;;;;115.18;67.45;;;16.00;99.90;;;;;;5000074;28;20038;-72
2021/06/05 03:43:59;;;;;;;113.22;68.78;;;16.00;99.90;;;;;;4993619;28;20010;-74
2021/06/05 03:46:25;;;;;;;109.18;63.03;;;16.00;99.90;;;;;;4998324;28;20034;-72
2021/06/05 03:48:51;;;;;;;104.80;61.28;;;16.00;99.90;;;;;;4997221;28;20057;-70
2021/06/05 03:51:17;;;;;;;106.60;64.30;;;16.00;99.90;;;;;;4997752;28;20034;-73
2021/06/05 03:53:42;;;;;;;108.55;63.30;;;16.00;99.90;;;;;;5001995;28;20032;-73
2021/06/05 03:56:08;;;;;;;108.20;62.50;;;16.00;99.90;;;;;;5001631;28;20519;-75
2021/06/05 03:58:38;;;;;;;96.80;56.63;;;16.10;99.90;;;;;;4997854;28;20069;-72
2021/06/05 04:01:06;;;;;;;92.05;55.80;;;16.00;99.90;;;;;;4999342;28;20034;-73
2021/06/05 04:03:32;;;;;;;101.05;56.60;;;15.90;99.90;;;;;;5003237;28;20039;-71
2021/06/05 04:05:58;;;;;;;106.07;58.53;;;15.90;99.90;;;;;;4993035;28;20042;-71
2021/06/05 04:08:23;;;;;;;101.43;55.83;;;15.90;99.90;;;;;;4990286;28;20018;-72
2021/06/05 04:10:50;;;;;;;104.25;56.42;;;15.90;99.90;;;;;;4990496;28;20082;-73
2021/06/05 04:13:16;;;;;;;112.53;59.15;;;16.00;99.90;;;;;;5000479;28;20043;-72
2021/06/05 04:15:41;;;;;;;110.68;55.60;;;16.00;99.90;;;;;;4993317;28;20030;-73
2021/06/05 04:18:20;;;;;;;113.25;58.88;;;16.00;99.90;;;;;;4992545;28;20093;-72
2021/06/05 04:20:45;;;;;;;112.70;57.70;;;16.00;99.90;;;;;;4998426;28;20564;-71
2021/06/05 04:23:13;;;;;;;112.03;57.95;;;16.00;99.90;;;;;;5005923;28;20040;-73
2021/06/05 04:25:39;;;;;;;119.88;58.88;;;16.00;99.90;;;;;;5001825;28;20116;-73
2021/06/05 04:28:07;;;;;;;121.28;58.67;;;16.00;99.90;;;;;;5001747;28;20030;-73
2021/06/05 04:30:34;;;;;;;125.90;57.65;;;16.00;99.90;;;;;;5007757;28;20298;-71
2021/06/05 04:33:00;;;;;;;122.90;56.28;;;15.90;99.90;;;;;;4994420;28;20675;-72
2021/06/05 04:35:26;;;;;;;105.88;52.85;;;15.90;99.90;;;;;;5002948;28;20034;-72
2021/06/05 04:37:53;;;;;;;105.35;51.95;;;15.90;99.90;;;;;;5000233;28;20049;-73
2021/06/05 04:40:20;;;;;;;106.43;52.13;;;15.90;99.90;;;;;;4997252;28;20069;-71
2021/06/05 04:42:48;;;;;;;107.55;51.30;;;15.90;99.90;;;;;;4996641;28;20436;-73
2021/06/05 04:45:16;;;;;;;99.28;50.42;;;15.80;99.90;;;;;;5010849;28;20105;-71
2021/06/05 04:47:44;;;;;;;98.68;46.08;;;15.80;99.90;;;;;;5024389;28;20032;-71
2021/06/05 04:50:11;;;;;;;91.07;45.75;;;15.80;99.90;;;;;;5019328;28;20022;-70
2021/06/05 04:52:38;;;;;;;82.82;43.75;;;15.80;99.90;;;;;;5019786;28;20026;-73
2021/06/05 04:55:06;;;;;;;86.57;43.45;;;15.90;99.90;;;;;;5014174;28;20025;-72
2021/06/05 04:57:32;;;;;;;78.70;41.35;;;15.90;99.90;;;;;;5019661;28;20025;-73
2021/06/05 04:59:58;;;;;;;80.47;43.35;;;15.90;99.90;;;;;;5020124;28;20513;-72
2021/06/05 05:02:24;;;;;;;68.82;40.95;;;16.00;99.90;;;;;;5022389;28;20014;-74
2021/06/05 05:04:50;;;;;;;66.85;39.67;;;16.00;99.90;;;;;;5020523;28;20010;-73
2021/06/05 05:07:16;;;;;;;68.00;37.35;;;16.10;99.90;;;;;;4998931;28;20033;-72
2021/06/05 05:09:41;;;;;;;66.18;37.90;;;16.20;99.90;;;;;;4993287;28;20080;-72
2021/06/05 05:12:08;;;;;;;66.45;38.53;;;16.20;99.90;;;;;;5006725;28;20022;-73
2021/06/05 05:14:34;;;;;;;54.42;35.70;;;16.30;99.90;;;;;;4996981;28;20041;-71
2021/06/05 05:17:00;;;;;;;58.78;34.80;;;16.20;99.90;;;;;;4999932;28;20140;-70
2021/06/05 05:19:26;;;;;;;60.70;35.95;;;16.20;99.90;;;;;;4999679;28;20045;-71
2021/06/05 05:21:52;;;;;;;66.85;36.50;;;16.20;99.90;;;;;;5010701;28;20022;-72
2021/06/05 05:24:19;;;;;;;57.78;34.95;;;16.30;99.90;;;;;;4995219;28;20023;-74
2021/06/05 05:26:46;;;;;;;54.80;33.67;;;16.30;99.90;;;;;;4994484;28;20056;-74
2021/06/05 05:29:12;;;;;;;51.67;33.15;;;16.30;99.90;;;;;;4998859;28;20022;-73
2021/06/05 05:31:37;;;;;;;50.97;32.78;;;16.30;99.90;;;;;;4996283;28;20033;-75
2021/06/05 05:34:03;;;;;;;50.55;33.92;;;16.30;99.90;;;;;;4993890;28;20053;-74
2021/06/05 05:36:34;;;;;;;48.42;31.70;;;16.40;99.90;;;;;;4994673;28;20043;-74
2021/06/05 05:39:03;;;;;;;45.63;29.30;;;16.50;99.90;;;;;;5006668;28;20028;-74
2021/06/05 05:41:29;;;;;;;46.13;29.35;;;16.50;99.90;;;;;;4995296;28;20037;-75
2021/06/05 05:43:55;;;;;;;44.90;29.45;;;16.30;99.90;;;;;;5002105;28;20018;-73
2021/06/05 05:46:22;;;;;;;47.00;28.52;;;16.20;99.90;;;;;;4996499;28;20423;-75
2021/06/05 05:48:49;;;;;;;40.95;27.70;;;16.30;99.90;;;;;;5002900;28;20112;-75
2021/06/05 05:51:17;;;;;;;39.20;27.65;;;16.30;99.90;;;;;;5002685;28;20026;-74
2021/06/05 05:53:43;;;;;;;41.30;26.70;;;16.30;99.90;;;;;;4994486;28;20134;-74
2021/06/05 05:56:11;;;;;;;40.72;28.52;;;16.50;99.90;;;;;;5004964;28;20152;-73
2021/06/05 05:58:40;;;;;;;43.40;29.05;;;16.50;99.90;;;;;;5003592;28;20108;-71
2021/06/05 06:01:09;;;;;;;46.83;30.15;;;16.30;99.90;;;;;;5010152;28;20017;-75
2021/06/05 06:03:35;;;;;;;45.03;30.02;;;16.30;99.90;;;;;;5025666;28;20086;-73
2021/06/05 06:06:06;;;;;;;41.65;29.55;;;16.20;99.90;;;;;;5014744;28;20053;-75
2021/06/05 06:08:36;;;;;;;47.03;31.52;;;16.30;99.90;;;;;;5023462;28;20026;-78
2021/06/05 06:11:03;;;;;;;46.80;30.90;;;16.30;99.90;;;;;;5023628;28;20037;-75
2021/06/05 06:13:29;;;;;;;50.00;31.55;;;16.30;99.90;;;;;;5009310;28;20112;-74
2021/06/05 06:15:55;;;;;;;45.60;29.55;;;16.30;99.90;;;;;;5004602;28;20038;-74
2021/06/05 06:18:20;;;;;;;45.78;30.30;;;16.20;99.90;;;;;;5009895;28;20361;-74
2021/06/05 06:20:50;;;;;;;44.60;28.83;;;16.20;99.90;;;;;;5007766;28;21242;-76
2021/06/05 06:23:25;;;;;;;42.03;28.92;;;16.20;99.90;;;;;;5001144;28;20034;-75
2021/06/05 06:25:53;;;;;;;40.40;27.52;;;16.20;99.90;;;;;;5006427;28;20058;-75
2021/06/05 06:28:23;;;;;;;39.17;26.17;;;16.20;99.90;;;;;;5002517;28;20054;-77
2021/06/05 06:30:49;;;;;;;37.15;24.60;;;16.20;99.90;;;;;;4997624;28;20514;-72
2021/06/05 06:33:16;;;;;;;35.70;25.00;;;16.30;99.90;;;;;;5006344;28;20523;-71
2021/06/05 06:35:42;;;;;;;31.92;21.42;;;16.40;99.90;;;;;;5003081;28;20319;-73
2021/06/05 06:38:13;;;;;;;30.33;21.60;;;16.30;99.90;;;;;;5013271;28;20625;-74
2021/06/05 06:40:40;;;;;;;31.10;21.70;;;16.30;99.90;;;;;;5003044;28;20030;-74
2021/06/05 06:43:08;;;;;;;21.50;17.75;;;16.30;99.90;;;;;;5006166;28;20034;-74
2021/06/05 06:45:33;;;;;;;32.95;17.75;;;16.30;99.90;;;;;;5006816;28;20018;-73
2021/06/05 06:47:59;;;;;;;20.52;17.15;;;16.30;99.90;;;;;;5002216;28;20037;-75
2021/06/05 06:50:28;;;;;;;21.42;16.92;;;16.20;99.90;;;;;;5011315;28;20034;-74
2021/06/05 06:52:55;;;;;;;17.20;14.45;;;16.20;99.90;;;;;;5004633;28;20126;-75
2021/06/05 06:55:23;;;;;;;19.30;13.80;;;16.20;99.90;;;;;;5007895;28;20346;-75
2021/06/05 06:57:49;;;;;;;22.17;15.10;;;16.20;99.90;;;;;;5008866;28;20009;-74
2021/06/05 07:00:19;;;;;;;20.92;15.23;;;16.10;99.90;;;;;;5026597;28;20320;-77
2021/06/05 07:02:44;;;;;;;16.70;14.38;;;16.20;99.90;;;;;;5031786;28;20010;-77
2021/06/05 07:05:19;;;;;;;15.93;13.20;;;16.20;99.90;;;;;;5028193;28;20045;-76
2021/06/05 07:07:45;;;;;;;17.35;14.20;;;16.20;99.90;;;;;;5026845;28;20080;-72
2021/06/05 07:10:12;;;;;;;14.52;12.50;;;16.20;99.90;;;;;;5010144;28;20026;-75
2021/06/05 07:12:38;;;;;;;16.67;12.43;;;16.10;99.90;;;;;;5007179;28;20018;-73
2021/06/05 07:15:07;;;;;;;16.98;13.02;;;16.20;99.90;;;;;;5024501;28;20053;-78
2021/06/05 07:17:33;;;;;;;18.95;13.27;;;16.10;99.90;;;;;;5026150;28;20029;-75
2021/06/05 07:19:59;;;;;;;15.15;13.13;;;16.00;99.90;;;;;;5024493;28;20042;-75
2021/06/05 07:22:24;;;;;;;18.10;13.70;;;16.00;99.90;;;;;;5013906;28;20038;-73
2021/06/05 07:24:54;;;;;;;18.25;13.57;;;16.10;99.90;;;;;;5021315;28;20057;-76
2021/06/05 07:27:26;;;;;;;23.30;15.95;;;16.20;99.90;;;;;;5031483;28;20121;-77
2021/06/05 07:29:51;;;;;;;19.43;14.83;;;16.10;99.90;;;;;;5036864;28;20041;-77
2021/06/05 07:32:21;;;;;;;18.88;16.00;;;16.10;99.90;;;;;;5044384;28;20268;-76
2021/06/05 07:34:49;;;;;;;22.92;16.80;;;16.20;99.90;;;;;;5022949;28;20053;-77
2021/06/05 07:37:19;;;;;;;21.88;14.95;;;16.20;99.90;;;;;;5016618;28;20105;-72
2021/06/05 07:39:45;;;;;;;22.17;16.83;;;16.30;99.90;;;;;;5014759;28;20037;-74
2021/06/05 07:42:11;;;;;;;23.05;16.92;;;16.40;99.90;;;;;;5012406;28;20026;-77
2021/06/05 07:44:36;;;;;;;26.50;18.25;;;16.40;99.90;;;;;;5006838;28;20025;-75
2021/06/05 07:47:03;;;;;;;24.63;18.55;;;16.20;99.90;;;;;;4999270;28;20049;-76
2021/06/05 07:49:33;;;;;;;28.58;18.67;;;16.20;99.90;;;;;;5006757;28;20530;-75
2021/06/05 07:51:59;;;;;;;25.67;19.65;;;16.10;99.90;;;;;;5013969;28;20018;-75
2021/06/05 07:54:25;;;;;;;30.55;20.33;;;16.10;99.90;;;;;;5010018;28;20025;-75
2021/06/05 07:56:51;;;;;;;30.08;21.25;;;16.20;99.90;;;;;;5010358;28;20133;-73
2021/06/05 07:59:20;;;;;;;34.58;21.88;;;16.10;99.90;;;;;;5004678;28;20014;-74
2021/06/05 08:01:46;;;;;;;29.92;21.83;;;16.00;99.90;;;;;;5016053;28;20018;-76
2021/06/05 08:04:17;;;;;;;33.15;22.63;;;16.00;99.90;;;;;;5016991;28;20027;-75
2021/06/05 08:06:45;;;;;;;28.67;20.60;;;15.90;99.90;;;;;;5014722;28;20025;-72
2021/06/05 08:09:12;;;;;;;30.33;20.48;;;15.90;99.90;;;;;;5013574;28;20026;-77
2021/06/05 08:11:38;;;;;;;24.73;19.13;;;16.00;99.90;;;;;;5008882;28;20026;-75
2021/06/05 08:14:05;;;;;;;28.33;20.05;;;16.10;99.90;;;;;;5013450;28;20044;-75
2021/06/05 08:16:36;;;;;;;24.30;19.38;;;16.20;99.90;;;;;;5001468;28;20411;-76
2021/06/05 08:19:07;;;;;;;27.77;19.35;;;16.30;99.90;;;;;;5007098;28;20054;-78
2021/06/05 08:21:46;;;;;;;26.67;17.93;;;16.30;99.90;;;;;;4999055;28;20030;-78
2021/06/05 08:24:16;;;;;;;22.17;16.77;;;16.30;99.90;;;;;;5007227;28;20105;-75
2021/06/05 08:26:42;;;;;;;25.48;17.58;;;16.40;99.90;;;;;;5012286;28;20511;-75
2021/06/05 08:29:08;;;;;;;26.45;17.63;;;16.40;99.90;;;;;;5001538;28;20022;-76
2021/06/05 08:31:36;;;;;;;20.95;14.95;;;16.20;99.90;;;;;;5001450;28;20022;-74
2021/06/05 08:34:05;;;;;;;24.48;17.20;;;16.20;99.90;;;;;;5009220;28;20105;-77
2021/06/05 08:36:32;;;;;;;21.08;15.80;;;16.10;99.90;;;;;;5002932;28;20403;-77
2021/06/05 08:38:58;;;;;;;19.85;14.88;;;16.20;99.90;;;;;;5000507;28;20028;-73
2021/06/05 08:41:37;;;;;;;26.65;14.80;;;16.20;99.90;;;;;;5008349;28;20077;-77
2021/06/05 08:44:12;;;;;;;20.10;15.50;;;16.20;99.90;;;;;;5004684;28;20072;-77
2021/06/05 08:46:48;;;;;;;17.10;15.00;;;16.20;99.90;;;;;;5013432;28;20101;-75
2021/06/05 08:49:28;;;;;;;17.88;14.40;;;16.30;99.90;;;;;;5006562;28;20014;-74
2021/06/05 08:52:06;;;;;;;19.30;14.77;;;16.30;99.90;;;;;;5009897;28;20017;-74
2021/06/05 08:54:46;;;;;;;21.85;15.13;;;16.40;99.90;;;;;;5004641;28;20033;-77
2021/06/05 08:57:37;;;;;;;20.30;16.15;;;16.30;99.90;;;;;;5009796;28;20022;-78
2021/06/05 09:00:12;;;;;;;22.88;14.70;;;16.10;99.90;;;;;;4987502;28;20042;-76
2021/06/05 09:02:38;;;;;;;23.35;14.40;;;16.10;99.90;;;;;;5006331;28;20026;-75
2021/06/05 09:05:13;;;;;;;18.42;14.23;;;16.00;99.90;;;;;;5013615;28;20060;-76
2021/06/05 09:07:40;;;;;;;15.55;13.27;;;16.00;99.90;;;;;;5011566;28;20093;-73
2021/06/05 09:10:08;;;;;;;17.20;13.45;;;15.90;99.90;;;;;;5007026;28;20041;-76
2021/06/05 09:12:34;;;;;;;15.63;12.10;;;16.00;99.90;;;;;;5004445;28;20048;-78
2021/06/05 09:15:00;;;;;;;15.50;11.52;;;16.00;99.90;;;;;;5007115;28;20511;-76
2021/06/05 09:17:46;;;;;;;18.25;12.27;;;16.10;99.90;;;;;;5003303;28;20030;-75
2021/06/05 09:21:04;;;;;;;19.20;12.93;;;16.10;99.90;;;;;;5001735;28;20037;-76
2021/06/05 09:23:38;;;;;;;20.90;12.82;;;16.10;99.90;;;;;;4946063;28;20681;-78
2021/06/05 09:26:31;;;;;;;18.67;13.27;;;16.20;99.90;;;;;;5006999;28;20030;-74
2021/06/05 09:29:20;;;;;;;18.77;13.43;;;16.20;99.90;;;;;;5005817;28;20500;-76
2021/06/05 09:31:58;;;;;;;15.43;12.02;;;16.20;99.90;;;;;;5005522;28;20340;-80
2021/06/05 09:34:40;;;;;;;16.63;11.77;;;16.40;99.90;;;;;;4997156;28;20034;-75
2021/06/05 09:37:25;;;;;;;13.98;11.02;;;16.40;99.90;;;;;;5000129;28;20026;-73
2021/06/05 09:40:18;;;;;;;17.48;11.07;;;16.40;99.90;;;;;;5001361;28;20043;-75
2021/06/05 09:42:49;;;;;;;15.90;10.90;;;16.60;99.90;;;;;;4999811;28;20407;-74
2021/06/05 09:45:47;;;;;;;13.68;10.40;;;16.70;99.90;;;;;;4998817;28;20036;-73
2021/06/05 09:48:27;;;;;;;16.55;10.30;;;16.70;99.90;;;;;;5004321;28;20084;-74
2021/06/05 09:50:56;;;;;;;13.43;11.15;;;16.90;99.90;;;;;;5014030;28;20025;-74
2021/06/05 09:53:32;;;;;;;14.20;10.85;;;16.90;99.90;;;;;;5007890;28;20033;-74
2021/06/05 09:56:22;;;;;;;14.02;10.82;;;16.80;99.90;;;;;;4994411;28;20022;-75
2021/06/05 09:59:06;;;;;;;13.63;10.90;;;16.80;99.90;;;;;;4999917;28;20026;-76
2021/06/05 10:01:35;;;;;;;12.40;9.35;;;17.00;99.90;;;;;;5000990;28;20623;-75
2021/06/05 10:04:18;;;;;;;9.95;8.82;;;17.10;99.90;;;;;;5007051;28;20088;-77
2021/06/05 10:06:51;;;;;;;10.93;8.63;;;17.30;99.90;;;;;;5000035;28;20077;-75
2021/06/05 10:09:38;;;;;;;10.30;9.02;;;17.60;99.90;;;;;;4999480;28;20526;-75
2021/06/05 10:12:05;;;;;;;9.98;8.98;;;17.70;99.90;;;;;;5003730;28;20030;-76
2021/06/05 10:14:44;;;;;;;12.65;9.48;;;17.90;99.90;;;;;;5002009;28;20246;-75
2021/06/05 10:17:18;;;;;;;12.00;9.57;;;17.80;99.90;;;;;;5007952;28;20030;-76
2021/06/05 10:19:54;;;;;;;14.18;10.15;;;17.80;99.90;;;;;;5008679;28;20030;-75
2021/06/05 10:22:23;;;;;;;16.33;12.05;;;17.70;99.90;;;;;;5010133;28;20100;-74
2021/06/05 10:25:06;;;;;;;18.83;12.95;;;17.60;99.90;;;;;;5004532;28;20026;-73
2021/06/05 10:27:40;;;;;;;19.50;13.88;;;17.60;99.90;;;;;;5006760;28;20458;-75
2021/06/05 10:30:15;;;;;;;19.10;13.32;;;17.70;99.90;;;;;;5002624;28;20030;-75
2021/06/05 10:32:43;;;;;;;19.77;14.10;;;17.70;99.90;;;;;;5001582;28;20068;-75
2021/06/05 10:35:12;;;;;;;20.55;13.02;;;17.80;99.90;;;;;;5009790;28;20040;-76
2021/06/05 10:37:39;;;;;;;21.48;16.52;;;17.80;99.90;;;;;;5016569;28;20022;-77
2021/06/05 10:40:14;;;;;;;15.85;13.45;;;17.80;99.90;;;;;;5019704;28;20033;-74
2021/06/05 10:42:48;;;;;;;20.70;14.85;;;17.90;99.90;;;;;;5013716;28;20152;-74
2021/06/05 10:45:25;;;;;;;18.48;14.00;;;17.80;99.90;;;;;;5006498;28;20057;-74
2021/06/05 10:48:09;;;;;;;21.08;13.60;;;17.70;99.90;;;;;;5005068;28;20015;-74
2021/06/05 10:50:40;;;;;;;20.67;14.52;;;17.70;99.90;;;;;;5002360;28;20109;-74
2021/06/05 10:53:24;;;;;;;17.88;14.32;;;17.80;99.90;;;;;;5009239;28;20619;-74
2021/06/05 10:56:10;;;;;;;19.48;15.05;;;17.60;99.90;;;;;;5006980;28;20073;-72
2021/06/05 10:58:44;;;;;;;21.73;14.45;;;17.60;99.90;;;;;;5001507;28;20030;-76
2021/06/05 11:01:38;;;;;;;21.55;13.77;;;17.60;99.90;;;;;;5017921;28;20034;-76
2021/06/05 11:04:32;;;;;;;15.63;11.45;;;17.70;99.90;;;;;;5012282;28;20035;-73
2021/06/05 11:07:04;;;;;;;16.08;12.43;;;17.70;99.90;;;;;;4993109;28;20445;-76
2021/06/05 11:09:32;;;;;;;16.45;12.05;;;17.80;99.90;;;;;;5004504;28;20041;-77
2021/06/05 11:12:13;;;;;;;17.42;12.75;;;18.00;99.90;;;;;;5018489;28;20049;-77
2021/06/05 11:14:44;;;;;;;17.85;12.23;;;18.10;99.90;;;;;;5015648;28;20030;-76
2021/06/05 11:17:18;;;;;;;17.33;13.18;;;18.40;99.90;;;;;;5004385;28;20010;-73
2021/06/05 11:19:49;;;;;;;16.58;11.93;;;18.20;99.90;;;;;;5000341;28;20026;-74
2021/06/05 11:22:24;;;;;;;17.40;13.05;;;18.00;99.90;;;;;;4997328;28;20033;-74
2021/06/05 11:25:07;;;;;;;19.17;13.52;;;18.20;99.90;;;;;;4992940;28;20061;-73
2021/06/05 11:27:36;;;;;;;17.27;11.32;;;18.20;99.90;;;;;;5005213;28;20520;-73
2021/06/05 11:30:04;;;;;;;16.88;11.25;;;18.30;99.90;;;;;;5001469;28;20032;-77
2021/06/05 11:32:54;;;;;;;14.80;10.90;;;18.30;99.90;;;;;;4998924;28;20045;-76
2021/06/05 11:35:33;;;;;;;17.15;11.40;;;18.60;99.90;;;;;;5002937;28;20060;-74
2021/06/05 11:38:08;;;;;;;16.60;10.98;;;19.00;99.90;;;;;;5021493;28;20018;-74
2021/06/05 11:41:08;;;;;;;17.70;11.88;;;19.30;99.90;;;;;;5035687;28;20038;-76
2021/06/05 11:43:42;;;;;;;18.42;12.15;;;19.40;99.90;;;;;;5027722;28;20022;-76
2021/06/05 11:46:11;;;;;;;21.42;14.40;;;19.50;99.90;;;;;;5029219;28;20110;-74
2021/06/05 11:48:49;;;;;;;17.83;13.82;;;18.90;99.90;;;;;;5015694;28;20030;-75
2021/06/05 11:51:21;;;;;;;20.42;13.75;;;18.80;99.90;;;;;;5016004;28;20539;-76
2021/06/05 11:54:13;;;;;;;18.05;13.05;;;18.80;99.90;;;;;;5001555;28;20022;-75
2021/06/05 11:56:51;;;;;;;19.48;14.20;;;18.60;99.90;;;;;;4993135;28;20323;-73
2021/06/05 11:59:28;;;;;;;19.98;14.50;;;18.80;99.90;;;;;;4996498;28;20486;-72
2021/06/05 12:02:08;;;;;;;20.48;13.90;;;18.70;99.90;;;;;;5002375;28;20022;-76
2021/06/05 12:05:04;;;;;;;27.10;15.38;;;18.40;99.90;;;;;;5003318;28;20026;-75
2021/06/05 12:07:37;;;;;;;23.27;16.55;;;18.70;99.90;;;;;;5011973;28;20080;-78
2021/06/05 12:10:09;;;;;;;27.08;17.95;;;18.70;99.90;;;;;;5014626;28;20435;-77
2021/06/05 12:12:43;;;;;;;23.27;16.92;;;18.50;99.90;;;;;;5014187;28;20396;-77
2021/06/05 12:15:36;;;;;;;25.08;16.63;;;18.30;99.90;;;;;;5005079;28;20038;-77
2021/06/05 12:18:09;;;;;;;25.67;17.23;;;18.20;99.90;;;;;;5004527;28;20311;-76
2021/06/05 12:20:52;;;;;;;29.30;18.73;;;18.30;99.90;;;;;;5019400;28;20028;-73
2021/06/05 12:23:24;;;;;;;29.90;18.65;;;18.50;99.90;;;;;;5020002;28;20099;-78
2021/06/05 12:26:10;;;;;;;28.27;18.67;;;18.40;99.90;;;;;;5002657;28;20072;-75
2021/06/05 12:28:40;;;;;;;31.95;19.08;;;18.40;99.90;;;;;;5014193;28;20023;-78
2021/06/05 12:31:34;;;;;;;31.77;20.25;;;18.20;99.90;;;;;;4995068;28;20030;-77
2021/06/05 12:34:25;;;;;;;40.60;22.17;;;18.50;99.90;;;;;;5004620;28;20038;-76
2021/06/05 12:37:00;;;;;;;35.45;20.83;;;18.10;99.90;;;;;;5004587;28;20097;-76
2021/06/05 12:39:41;;;;;;;31.48;19.63;;;18.10;99.90;;;;;;5009984;28;20089;-74
2021/06/05 12:42:09;;;;;;;33.65;18.92;;;18.20;99.90;;;;;;5002726;28;20034;-76
2021/06/05 12:44:36;;;;;;;26.88;17.17;;;18.00;99.90;;;;;;5005297;28;20072;-75